22 mai 2022

Temps Code Temps Temp. Vue Des nuages Vent METAR/SPECI
09:30
V
17 °C 10 km+ - Var   Var 3 kt METAR LFQQ 220730Z AUTO VRB03KT CAVOK 17/12 Q1017 NOSIG
09:00
V
15 °C 10 km+ - 150°   150° 3 kt METAR LFQQ 220700Z AUTO 15003KT 110V210 CAVOK 15/11 Q1017 NOSIG
08:30
V
14 °C 10 km+ - 130°   130° 3 kt METAR LFQQ 220630Z AUTO 13003KT 100V180 CAVOK 14/11 Q1017 NOSIG
08:00
V
13 °C 10 km+ - Var   Var 1 kt METAR LFQQ 220600Z AUTO VRB01KT CAVOK 13/10 Q1017 TEMPO 1300 BCFG
07:30
V
11 °C 10 km+ - Var   Var 1 kt METAR LFQQ 220530Z AUTO VRB01KT CAVOK 11/10 Q1017 NOSIG
07:00
V
11 °C 10 km+ - Var   000° 0 kt METAR LFQQ 220500Z AUTO 00000KT CAVOK 11/10 Q1017 NOSIG
06:30
L
10 °C 1,3 km - 190°   190° 1 kt METAR LFQQ 220430Z AUTO 19001KT 8000 1300 R26/1200U R08/P5000 NSC 10/09 Q1017 NOSIG
06:00
L
9 °C 600 m - 170°   170° 2 kt METAR LFQQ 220400Z AUTO 17002KT 9999 0600 R26/0750D R08/P5000 BCFG NSC 09/09 Q1017 TEMPO 1500 BR BKN003
05:30
V
9 °C 10 km+ - Var   000° 0 kt METAR LFQQ 220330Z AUTO 00000KT CAVOK 09/08 Q1017 TEMPO 1500 BR BKN003
05:00
V
10 °C 10 km+ - 020°   020° 2 kt METAR LFQQ 220300Z AUTO 02002KT CAVOK 10/08 Q1018 TEMPO 1500 BR BKN003
04:30
V
10 °C 10 km+ - Var   Var 2 kt METAR LFQQ 220230Z AUTO VRB02KT CAVOK 10/09 Q1018 TEMPO 1500 BR BKN003
04:00
V
10 °C 10 km+ - 050°   050° 3 kt METAR LFQQ 220200Z AUTO 05003KT CAVOK 10/09 Q1018 TEMPO 1500 BR BKN003
03:30
V
11 °C 10 km+ - 070°   070° 2 kt METAR LFQQ 220130Z AUTO 07002KT CAVOK 11/09 Q1018 TEMPO 1500 BR BKN003
03:00
V
11 °C 10 km+ - 030°   030° 3 kt METAR LFQQ 220100Z AUTO 03003KT CAVOK 11/09 Q1018 TEMPO 1500 BR BKN003
02:30
V
11 °C 10 km+ - Var   000° 0 kt METAR LFQQ 220030Z AUTO 00000KT CAVOK 11/09 Q1019 TEMPO 1500 BR BKN003
02:00
V
11 °C 10 km+ - Var   000° 0 kt METAR LFQQ 220000Z AUTO 00000KT CAVOK 11/09 Q1019 TEMPO 1500 BR BKN003
01:30
V
12 °C 10 km+ - Var   Var 1 kt METAR LFQQ 212330Z AUTO VRB01KT CAVOK 12/09 Q1019 TEMPO 1500 BR BKN003
01:00
V
12 °C 10 km+ - 030°   030° 1 kt METAR LFQQ 212300Z AUTO 03001KT CAVOK 12/09 Q1019 NOSIG
00:30
V
12 °C 10 km+ - Var   000° 0 kt METAR LFQQ 212230Z AUTO 00000KT CAVOK 12/10 Q1019 NOSIG
00:00
V
13 °C 10 km+ - Var   Var 1 kt METAR LFQQ 212200Z AUTO VRB01KT CAVOK 13/09 Q1020 NOSIG

21 mai 2022

Temps Code Temps Temp. Vue Des nuages Vent METAR/SPECI
23:30
V
14 °C 10 km+ - 250°   250° 3 kt METAR LFQQ 212130Z AUTO 25003KT CAVOK 14/10 Q1020 NOSIG
23:00
V
15 °C 10 km+ - 270°   270° 4 kt METAR LFQQ 212100Z AUTO 27004KT CAVOK 15/10 Q1020 NOSIG
22:30
V
15 °C 10 km+ - 280°   280° 3 kt METAR LFQQ 212030Z AUTO 28003KT CAVOK 15/10 Q1020 NOSIG
22:00
V
16 °C 10 km+ - 290°   290° 4 kt METAR LFQQ 212000Z AUTO 29004KT 9999 FEW044 16/09 Q1020 NOSIG
21:30
V
16 °C 10 km+ 15.000 ft 290°   290° 7 kt METAR LFQQ 211930Z AUTO 29007KT 9999 FEW045 BKN150 16/10 Q1020 NOSIG
21:00
V
17 °C 10 km+ 14.000 ft 280°   280° 7 kt METAR LFQQ 211900Z AUTO 28007KT 9999 FEW045 BKN140 17/10 Q1020 NOSIG
20:30
V
18 °C 10 km+ - 270°   270° 5 kt METAR LFQQ 211830Z AUTO 27005KT 9999 FEW049 18/09 Q1020 NOSIG
20:00
V
20 °C 10 km+ - 280°   280° 7 kt METAR LFQQ 211800Z AUTO 28007KT 240V300 9999 FEW046 20/09 Q1020 NOSIG
19:30
V
20 °C 10 km+ - 260°   260° 7 kt METAR LFQQ 211730Z AUTO 26007KT 220V290 9999 SCT047 20/09 Q1020 NOSIG
19:00
V
20 °C 10 km+ - 250°   250° 8 kt METAR LFQQ 211700Z AUTO 25008KT 9999 FEW048 20/09 Q1020 NOSIG
18:30
V
20 °C 10 km+ - 230°   230° 7 kt METAR LFQQ 211630Z AUTO 23007KT 200V260 9999 SCT047 20/08 Q1020 NOSIG
18:00
V
20 °C 10 km+ 4.700 ft 230°   230° 8 kt METAR LFQQ 211600Z AUTO 23008KT 200V300 9999 BKN047 20/09 Q1021 NOSIG
17:30
V
19 °C 10 km+ - 260°   260° 4 kt METAR LFQQ 211530Z AUTO 26004KT 220V310 9999 SCT046 19/09 Q1021 NOSIG
17:00
V
20 °C 10 km+ - 230°   230° 7 kt METAR LFQQ 211500Z AUTO 23007KT 170V290 9999 SCT048 20/09 Q1021 NOSIG
16:30
V
20 °C 10 km+ - 260°   260° 6 kt METAR LFQQ 211430Z AUTO 26006KT 230V300 9999 SCT047 SCT054 20/09 Q1021 NOSIG
16:00
V
20 °C 10 km+ - 230°   230° 7 kt METAR LFQQ 211400Z AUTO 23007KT 180V260 9999 FEW047 20/09 Q1022 NOSIG
15:30
V
19 °C 10 km+ 5.200 ft 270°   270° 9 kt METAR LFQQ 211330Z AUTO 27009KT 9999 FEW045 BKN052 19/09 Q1022 NOSIG
15:00
V
19 °C 10 km+ 4.200 ft 260°   260° 9 20 kt METAR LFQQ 211300Z AUTO 26009G20KT 210V290 9999 BKN042 BKN048 19/09 Q1022 NOSIG
14:30
V
19 °C 10 km+ 4.700 ft 240°   240° 9 kt METAR LFQQ 211230Z AUTO 24009KT 170V300 9999 FEW039 BKN047 19/10 Q1022 NOSIG
14:00
V
19 °C 10 km+ 4.700 ft 260°   260° 10 kt METAR LFQQ 211200Z AUTO 26010KT 9999 SCT039 BKN047 19/10 Q1022 NOSIG
13:30
V
18 °C 10 km+ 4.900 ft 280°   280° 9 kt METAR LFQQ 211130Z AUTO 28009KT 9999 SCT035 SCT042 BKN049 18/09 Q1022 NOSIG
13:00
V
18 °C 10 km+ - 240°   240° 10 kt METAR LFQQ 211100Z AUTO 24010KT 210V270 9999 FEW035 SCT050 18/10 Q1023 NOSIG
12:30
V
18 °C 10 km+ 3.200 ft 250°   250° 11 kt METAR LFQQ 211030Z AUTO 25011KT 210V300 9999 BKN032 BKN038 BKN045 18/10 Q1023 NOSIG
12:00
V
18 °C 10 km+ 3.100 ft 280°   280° 9 kt METAR LFQQ 211000Z AUTO 28009KT 9999 BKN031 BKN039 BKN046 18/10 Q1023 NOSIG
11:30
M
17 °C 10 km+ 2.900 ft 260°   260° 8 kt METAR LFQQ 210930Z AUTO 26008KT 220V300 9999 BKN029 BKN034 BKN042 17/10 Q1023 NOSIG
11:00
V
17 °C 10 km+ 3.100 ft 270°   270° 10 kt METAR LFQQ 210900Z AUTO 27010KT 240V310 9999 SCT024 BKN031 17/10 Q1023 NOSIG
10:30
M
16 °C 10 km+ 2.800 ft 260°   260° 7 kt METAR LFQQ 210830Z AUTO 26007KT 220V300 9999 SCT023 BKN028 16/11 Q1023 NOSIG
10:00
M
15 °C 10 km+ 1.800 ft 250°   250° 10 kt METAR LFQQ 210800Z AUTO 25010KT 220V280 9999 BKN018 BKN023 15/10 Q1023 NOSIG
09:30
M
15 °C 10 km+ 1.600 ft 250°   250° 10 kt METAR LFQQ 210730Z AUTO 25010KT 9999 BKN016 BKN230 15/11 Q1023 NOSIG
09:00
V
14 °C 10 km+ 23.000 ft 230°   230° 10 kt METAR LFQQ 210700Z AUTO 23010KT 9999 SCT014 BKN230 14/11 Q1023 TEMPO BKN013
08:30
V
13 °C 10 km+ - 220°   220° 9 kt METAR LFQQ 210630Z AUTO 22009KT 9999 FEW011 SCT230 13/11 Q1022 TEMPO BKN013
08:00
V
13 °C 10 km+ - 220°   220° 8 kt METAR LFQQ 210600Z AUTO 22008KT CAVOK 13/11 Q1022 TEMPO BKN013
07:30
V
12 °C 10 km+ - 220°   220° 8 kt METAR LFQQ 210530Z AUTO 22008KT CAVOK 12/11 Q1022 TEMPO BKN013
07:00
V
11 °C 10 km+ - 210°   210° 7 kt METAR LFQQ 210500Z AUTO 21007KT CAVOK 11/11 Q1022 NOSIG
06:30
V
11 °C 10 km+ - 220°   220° 6 kt METAR LFQQ 210430Z AUTO 22006KT CAVOK 11/10 Q1022 NOSIG
06:00
V
10 °C 10 km+ 19.000 ft 210°   210° 4 kt METAR LFQQ 210400Z AUTO 21004KT 9999 FEW014 BKN190 BKN220 10/10 Q1022 NOSIG
05:30
V
10 °C 10 km+ - 180°   180° 4 kt METAR LFQQ 210330Z AUTO 18004KT CAVOK 10/09 Q1022 BECMG 26010KT
05:00
V
11 °C 10 km+ - 200°   200° 5 kt METAR LFQQ 210300Z AUTO 20005KT CAVOK 11/09 Q1022 TEMPO BKN013 BECMG 26010KT
04:30
V
11 °C 10 km+ - 230°   230° 7 kt METAR LFQQ 210230Z AUTO 23007KT CAVOK 11/10 Q1021 TEMPO BKN013
04:00
V
11 °C 10 km+ - 230°   230° 8 kt METAR LFQQ 210200Z AUTO 23008KT CAVOK 11/10 Q1021 TEMPO BKN013
03:30
V
11 °C 10 km+ - 230°   230° 8 kt METAR LFQQ 210130Z AUTO 23008KT 9999 FEW025 11/09 Q1021 TEMPO BKN013
03:00
M
11 °C 10 km+ 2.300 ft 220°   220° 8 kt METAR LFQQ 210100Z AUTO 22008KT 9999 BKN023 11/09 Q1022 TEMPO BKN013
02:30
V
11 °C 10 km+ - 230°   230° 8 kt METAR LFQQ 210030Z AUTO 23008KT 9999 FEW020 SCT026 11/08 Q1022 TEMPO BKN013
02:00
V
10 °C 10 km+ - 210°   210° 7 kt METAR LFQQ 210000Z AUTO 21007KT CAVOK 10/08 Q1021 TEMPO BKN013
01:30
V
11 °C 10 km+ - 210°   210° 8 kt METAR LFQQ 202330Z AUTO 21008KT CAVOK 11/09 Q1021 TEMPO BKN013 BECMG 28013KT
01:00
V
11 °C 10 km+ - 220°   220° 9 kt METAR LFQQ 202300Z AUTO 22009KT CAVOK 11/09 Q1021 TEMPO BKN013 BECMG 28013KT
00:30
V
11 °C 10 km+ - 220°   220° 9 kt METAR LFQQ 202230Z AUTO 22009KT CAVOK 11/09 Q1021 TEMPO BKN013 BECMG 28013KT
00:00
V
11 °C 10 km+ - 200°   200° 7 kt METAR LFQQ 202200Z AUTO 20007KT CAVOK 11/09 Q1021 BECMG 28013KT

20 mai 2022

Temps Code Temps Temp. Vue Des nuages Vent METAR/SPECI
23:30
V
11 °C 10 km+ - 210°   210° 7 kt METAR LFQQ 202130Z AUTO 21007KT CAVOK 11/09 Q1021 BECMG 28013KT
23:00
V
12 °C 10 km+ - 220°   220° 8 kt METAR LFQQ 202100Z AUTO 22008KT CAVOK 12/09 Q1021 BECMG 28013KT
22:30
V
12 °C 10 km+ - 230°   230° 9 kt METAR LFQQ 202030Z AUTO 23009KT CAVOK 12/09 Q1021 NOSIG
22:00
V
13 °C 10 km+ - 240°   240° 8 kt METAR LFQQ 202000Z AUTO 24008KT CAVOK 13/09 Q1021 NOSIG
21:30
V
13 °C 10 km+ - 240°   240° 6 kt METAR LFQQ 201930Z AUTO 24006KT CAVOK 13/09 Q1021 NOSIG
21:00
V
14 °C 10 km+ - 250°   250° 9 kt METAR LFQQ 201900Z AUTO 25009KT 9999 FEW024 14/09 Q1020 NOSIG
20:30
M
15 °C 10 km+ 2.500 ft 260°   260° 11 kt METAR LFQQ 201830Z AUTO 26011KT 9999 BKN025 15/09 Q1020 NOSIG
20:00
M
15 °C 10 km+ 2.700 ft 260°   260° 15 kt METAR LFQQ 201800Z AUTO 26015KT 9999 BKN027 15/09 Q1020 NOSIG
19:30
M
16 °C 10 km+ 2.500 ft 260°   260° 13 kt METAR LFQQ 201730Z AUTO 26013KT 9999 BKN025 16/10 Q1019 NOSIG
19:00
V
16 °C 10 km+ 5.800 ft 260°   260° 11 kt METAR LFQQ 201700Z AUTO 26011KT 220V280 9999 SCT025 SCT043 BKN058 16/11 Q1019 NOSIG
18:30
V
15 °C 10 km+ 4.400 ft 270°   270° 11 kt METAR LFQQ 201630Z AUTO 27011KT 9999 FEW017 SCT031 BKN044 15/11 Q1019 NOSIG
18:00
M
14 °C 10 km+ 2.800 ft 270°   270° 10 kt METAR LFQQ 201600Z AUTO 27010KT 9999 SCT010 OVC028 14/11 Q1019 NOSIG
17:30
M
14 °C 10 km+ 1.200 ft 280°   280° 14 kt METAR LFQQ 201530Z AUTO 28014KT 9999 OVC012 14/11 Q1018 BECMG BKN020
17:00
M
14 °C 10 km+ 1.000 ft 270°   270° 14 kt METAR LFQQ 201500Z AUTO 27014KT 9999 BKN010 OVC014 14/11 Q1018 BECMG BKN020
16:30
I
13 °C 10 km+ 900 ft 290°   290° 16 kt METAR LFQQ 201430Z AUTO 29016KT 9999 OVC009 13/11 Q1018 BECMG BKN020
16:00
M
15 °C 10 km+ 1.100 ft 310°   310° 11 kt METAR LFQQ 201400Z AUTO 31011KT 280V340 9999 BKN011 BKN025 15/12 Q1017 BECMG BKN020
15:30
I
14 °C 10 km+ 800 ft 310°   310° 11 kt METAR LFQQ 201330Z AUTO 31011KT 9999 BKN008 BKN023 OVC120 14/12 Q1017 BECMG BKN020
15:00
I
13 °C 10 km+ 700 ft 310°   310° 17 kt METAR LFQQ 201300Z AUTO 31017KT 9999 BKN007 BKN026 OVC120 13/12 Q1016 BECMG BKN020
14:30
I
16 °C 2,2 km 500 ft 280°   280° 13 kt METAR LFQQ 201230Z AUTO 28013KT 2200 -RA BR BKN005/// OVC012/// //////CB 16/15 Q1016 BECMG 9999 NSW BKN020
14:00
I
18 °C 4,5 km 800 ft 260°   260° 7 kt METAR LFQQ 201200Z AUTO 26007KT 4500 -RA BR BKN008/// BKN014/// OVC020/// ///CB 18/16 Q1014 TEMPO 22020G35KT BECMG 9999 NSW BKN020
13:30
I
18 °C 4,6 km 700 ft 270°   270° 7 kt METAR LFQQ 201130Z AUTO 27007KT 4600 BR BKN007 BKN011 BKN120 18/17 Q1014 TEMPO BKN010 BKN040CB BECMG 33015KT 9999 NSW
13:00
I
17 °C 4,2 km 7.200 ft 140°   140° 4 kt METAR LFQQ 201100Z AUTO 14004KT 110V170 4200 -RA BR FEW027/// SCT052/// BKN072/// ///TCU 17/16 Q1014 TEMPO 22025G50KT 0700 TSGR BKN010 BKN040CB
12:30
I
17 °C 3,4 km 7.400 ft 160°   160° 6 kt METAR LFQQ 201030Z AUTO 16006KT 100V210 3400 RA BR FEW037/// BKN074/// OVC088/// //////CB 17/16 Q1015 TEMPO 22025G50KT 0700 TSGR BKN010 BKN040CB
12:00
M
18 °C 6 km 5.400 ft 120°   120° 10 kt METAR LFQQ 201000Z AUTO 12010KT 6000 -RA SCT033/// BKN054/// BKN068/// ///CB 18/15 Q1015 TEMPO 22025G50KT 0700 TSGR BKN010 BKN040CB
11:30
V
19 °C 9 km 7.200 ft 100°   100° 7 kt METAR LFQQ 200930Z AUTO 10007KT 9000 -RA SCT035/// SCT058/// BKN072/// //////TCU 19/15 Q1016 TEMPO 22025G50KT 0700 TSGR BKN010 BKN040CB
11:00
V
19 °C 10 km+ 3.600 ft 080°   080° 6 kt METAR LFQQ 200900Z AUTO 08006KT 9999 OVC036 19/14 Q1016 TEMPO 22025G50KT 0700 TSGR BKN010 BKN040CB
10:30
V
19 °C 10 km+ 3.800 ft 070°   070° 6 kt METAR LFQQ 200830Z AUTO 07006KT 9999 BKN038 BKN050 19/13 Q1017 TEMPO 22025G50KT 0700 TSGR BKN010 BKN040CB
10:00
V
18 °C 10 km+ 4.000 ft 060°   060° 7 kt METAR LFQQ 200800Z AUTO 06007KT 9999 BKN040 BKN078 18/14 Q1017 TEMPO 22025G50KT 0700 TSGR BKN010 BKN040CB
09:30
V
18 °C 10 km+ 8.000 ft 060°   060° 6 kt METAR LFQQ 200730Z AUTO 06006KT 9999 FEW043 SCT050 BKN080 18/13 Q1018 TEMPO 22025G50KT 0700 TSGR BKN010 BKN040CB
09:00
V
16 °C 10 km+ - 050°   050° 4 kt METAR LFQQ 200700Z AUTO 05004KT 020V080 CAVOK 16/13 Q1019 NOSIG
Données plus anciennes

Télécharge notre application

Un accès facile à toute la météo aéronautique sur ton téléphone portable et ta tablette.
Avec de nombreuses fonctionnalités non disponibles sur le site Web, comme la prise en charge hors ligne et une liste personnelle d'aéroports.

Nous et des tiers suivons ton comportement sur Internet sur notre site Web à l'aide de cookies. Si tu continues, nous supposons que tu acceptes notre politique en matière de cookies. Apprendre plus